createdAt,value
2023-01-11T00:00:46.788Z,0.70
2023-01-11T00:03:15.218Z,0.80
2023-01-11T00:05:44.073Z,1.17
2023-01-11T00:08:12.331Z,1.10
2023-01-11T00:10:40.762Z,0.68
2023-01-11T00:13:08.244Z,0.90
2023-01-11T00:15:36.600Z,0.67
2023-01-11T00:18:04.586Z,0.90
2023-01-11T00:20:32.594Z,0.70
2023-01-11T00:23:00.276Z,1.05
2023-01-11T00:25:28.228Z,1.12
2023-01-11T00:27:55.752Z,0.60
2023-01-11T00:30:23.431Z,1.00
2023-01-11T00:32:56.295Z,0.98
2023-01-11T00:35:24.634Z,1.00
2023-01-11T00:37:55.227Z,1.10
2023-01-11T00:40:24.104Z,0.80
2023-01-11T00:43:10.736Z,1.12
2023-01-11T00:45:57.328Z,0.90
2023-01-11T00:48:25.199Z,0.98
2023-01-11T00:50:55.568Z,1.00
2023-01-11T00:53:23.123Z,0.80
2023-01-11T00:55:50.933Z,0.98
2023-01-11T00:58:18.415Z,1.05
2023-01-11T01:00:45.983Z,1.02
2023-01-11T01:03:13.745Z,0.82
2023-01-11T01:05:41.244Z,1.10
2023-01-11T01:08:08.909Z,0.95
2023-01-11T01:10:36.726Z,1.23
2023-01-11T01:13:22.861Z,0.88
2023-01-11T01:15:57.329Z,0.90
2023-01-11T01:18:24.838Z,1.00
2023-01-11T01:20:52.594Z,0.82
2023-01-11T01:23:20.097Z,1.12
2023-01-11T01:25:47.585Z,0.90
2023-01-11T01:28:15.387Z,1.70
2023-01-11T01:30:42.851Z,1.20
2023-01-11T01:33:10.358Z,0.90
2023-01-11T01:35:38.620Z,1.30
2023-01-11T01:38:06.213Z,1.10
2023-01-11T01:40:33.757Z,1.40
2023-01-11T01:43:01.508Z,1.57
2023-01-11T01:45:29.044Z,1.15
2023-01-11T01:48:01.822Z,1.25
2023-01-11T01:50:37.363Z,1.25
2023-01-11T01:53:29.994Z,1.62
2023-01-11T01:56:01.580Z,1.37
2023-01-11T01:58:40.815Z,1.50
2023-01-11T02:01:27.305Z,1.80
2023-01-11T02:03:55.325Z,1.50
2023-01-11T02:06:23.957Z,1.60
2023-01-11T02:09:02.388Z,1.50
2023-01-11T02:11:30.918Z,1.48
2023-01-11T02:14:06.663Z,1.67
2023-01-11T02:16:34.789Z,1.55
2023-01-11T02:19:02.367Z,1.20
2023-01-11T02:22:31.566Z,1.10
2023-01-11T02:25:50.369Z,1.20
2023-01-11T02:28:46.296Z,1.40
2023-01-11T02:31:22.825Z,1.48
2023-01-11T02:34:18.282Z,1.65
2023-01-11T02:36:48.947Z,1.27
2023-01-11T02:39:30.215Z,1.25
2023-01-11T02:42:27.363Z,1.10
2023-01-11T02:45:11.773Z,1.05
2023-01-11T02:48:03.983Z,0.90
2023-01-11T02:50:59.206Z,0.90
2023-01-11T02:53:39.539Z,0.82
2023-01-11T02:56:12.626Z,0.85
2023-01-11T02:58:44.113Z,0.80
2023-01-11T03:01:13.353Z,1.12
2023-01-11T03:03:41.120Z,1.07
2023-01-11T03:06:14.056Z,0.88
2023-01-11T03:08:56.736Z,0.75
2023-01-11T03:12:20.023Z,0.98
2023-01-11T03:15:08.017Z,0.95
2023-01-11T03:18:03.798Z,0.83
2023-01-11T03:20:37.664Z,0.70
2023-01-11T03:23:24.534Z,0.90
2023-01-11T03:26:21.197Z,0.73
2023-01-11T03:28:57.465Z,0.60
2023-01-11T03:31:37.023Z,0.70
2023-01-11T03:34:24.180Z,0.80
2023-01-11T03:36:57.054Z,0.82
2023-01-11T03:39:28.846Z,0.85
2023-01-11T03:42:00.557Z,0.85
2023-01-11T03:44:34.211Z,0.53
2023-01-11T03:47:06.998Z,0.90
2023-01-11T03:49:57.027Z,0.60
2023-01-11T03:52:31.289Z,0.88
2023-01-11T03:55:00.097Z,0.70
2023-01-11T03:57:39.786Z,0.63
2023-01-11T04:00:08.863Z,0.60
2023-01-11T04:02:40.810Z,1.05
2023-01-11T04:05:09.996Z,0.68
2023-01-11T04:07:37.953Z,0.65
2023-01-11T04:10:06.469Z,0.70
2023-01-11T04:12:34.142Z,0.47
2023-01-11T04:15:03.294Z,0.65
2023-01-11T04:17:32.158Z,0.60
2023-01-11T04:19:59.627Z,0.80
2023-01-11T04:22:27.406Z,0.60
2023-01-11T04:24:54.885Z,0.73
2023-01-11T04:27:22.374Z,0.70
2023-01-11T04:29:50.131Z,0.73
2023-01-11T04:32:17.584Z,0.90
2023-01-11T04:34:45.068Z,0.70
2023-01-11T04:37:12.949Z,0.90
2023-01-11T04:39:40.418Z,1.00
2023-01-11T04:42:20.357Z,0.30
2023-01-11T04:44:51.759Z,1.00
2023-01-11T04:47:21.568Z,1.13
2023-01-11T04:49:49.937Z,0.57
2023-01-11T04:52:19.855Z,1.00
2023-01-11T04:54:48.799Z,0.88
2023-01-11T04:57:17.609Z,0.40
2023-01-11T04:59:48.075Z,0.60
2023-01-11T05:02:16.677Z,0.40
2023-01-11T05:04:44.419Z,0.82
2023-01-11T05:07:12.094Z,0.73
2023-01-11T05:09:40.905Z,0.65
2023-01-11T05:12:08.528Z,0.70
2023-01-11T05:14:36.017Z,0.62
2023-01-11T05:17:03.814Z,0.68
2023-01-11T05:19:31.361Z,0.80
2023-01-11T05:21:58.864Z,0.88
2023-01-11T05:24:26.706Z,0.80
2023-01-11T05:26:54.237Z,0.70
2023-01-11T05:29:21.989Z,1.00
2023-01-11T05:31:50.025Z,0.95
2023-01-11T05:34:18.616Z,0.77
2023-01-11T05:36:46.763Z,0.80
2023-01-11T05:39:14.976Z,1.10
2023-01-11T05:41:42.844Z,0.80
2023-01-11T05:44:32.335Z,0.88
2023-01-11T05:47:00.367Z,0.70
2023-01-11T05:49:27.917Z,0.67
2023-01-11T05:51:55.699Z,0.70
2023-01-11T05:54:23.609Z,0.70
2023-01-11T05:56:51.114Z,0.73
2023-01-11T05:59:18.856Z,0.80
2023-01-11T06:01:46.957Z,0.50
2023-01-11T06:04:14.761Z,0.62
2023-01-11T06:06:42.303Z,0.70
2023-01-11T06:09:09.899Z,0.75
2023-01-11T06:11:37.712Z,0.82
2023-01-11T06:14:05.217Z,0.90
2023-01-11T06:16:32.828Z,0.60
2023-01-11T06:19:00.624Z,0.50
2023-01-11T06:21:28.097Z,0.50
2023-01-11T06:23:55.674Z,0.50
2023-01-11T06:26:23.695Z,0.70
2023-01-11T06:28:51.487Z,0.40
2023-01-11T06:31:19.473Z,0.60
2023-01-11T06:33:47.623Z,0.50
2023-01-11T06:36:16.272Z,0.43
2023-01-11T06:38:44.685Z,0.60
2023-01-11T06:41:13.583Z,0.50
2023-01-11T06:43:42.360Z,0.60
2023-01-11T06:46:12.379Z,0.75
2023-01-11T06:48:40.385Z,0.60
2023-01-11T06:51:10.990Z,0.77
2023-01-11T06:53:39.171Z,0.50
2023-01-11T06:56:08.039Z,0.60
2023-01-11T06:58:35.532Z,0.62
2023-01-11T07:01:03.156Z,0.82
2023-01-11T07:03:31.273Z,0.57
2023-01-11T07:05:58.961Z,0.55
2023-01-11T07:08:26.763Z,0.70
2023-01-11T07:10:54.976Z,0.70
2023-01-11T07:13:22.945Z,0.50
2023-01-11T07:15:54.100Z,0.40
2023-01-11T07:18:22.034Z,0.52
2023-01-11T07:20:51.359Z,0.50
2023-01-11T07:23:18.926Z,0.90
2023-01-11T07:25:48.683Z,0.88
2023-01-11T07:28:16.311Z,0.60
2023-01-11T07:30:59.974Z,0.70
2023-01-11T07:33:28.144Z,0.95
2023-01-11T07:35:55.743Z,0.70
2023-01-11T07:38:23.658Z,0.90
2023-01-11T07:40:51.663Z,0.60
2023-01-11T07:43:21.563Z,0.50
2023-01-11T07:45:51.182Z,0.82
2023-01-11T07:48:28.230Z,0.47
2023-01-11T07:50:55.813Z,0.80
2023-01-11T07:53:26.247Z,1.07
2023-01-11T07:55:56.708Z,0.80
2023-01-11T07:58:24.903Z,1.00
2023-01-11T08:00:52.805Z,0.75
2023-01-11T08:03:20.922Z,1.10
2023-01-11T08:05:52.829Z,0.70
2023-01-11T08:08:20.932Z,0.70
2023-01-11T08:11:09.042Z,0.80
2023-01-11T08:13:55.531Z,0.50
2023-01-11T08:16:23.298Z,0.68
2023-01-11T08:18:52.690Z,0.50
2023-01-11T08:21:21.466Z,0.93
2023-01-11T08:23:48.998Z,0.50
2023-01-11T08:26:18.133Z,0.43
2023-01-11T08:28:46.563Z,0.88
2023-01-11T08:31:14.119Z,0.83
2023-01-11T08:33:42.021Z,0.60
2023-01-11T08:36:11.264Z,1.30
2023-01-11T08:38:39.969Z,0.73
2023-01-11T08:41:10.862Z,0.80
2023-01-11T08:43:39.156Z,0.70
2023-01-11T08:46:10.408Z,0.62
2023-01-11T08:48:38.825Z,0.77
2023-01-11T08:51:06.446Z,0.77
2023-01-11T08:53:34.106Z,0.80
2023-01-11T08:56:02.105Z,0.70
2023-01-11T08:58:29.664Z,0.90
2023-01-11T09:01:02.816Z,0.70
2023-01-11T09:03:31.785Z,0.80
2023-01-11T09:05:59.328Z,0.93
2023-01-11T09:08:28.278Z,0.70
2023-01-11T09:10:56.768Z,0.85
2023-01-11T09:13:24.247Z,1.27
2023-01-11T09:15:55.889Z,0.88
2023-01-11T09:18:26.832Z,0.70
2023-01-11T09:20:54.904Z,0.73
2023-01-11T09:23:22.379Z,0.80
2023-01-11T09:25:50.202Z,0.77
2023-01-11T09:28:17.780Z,0.85
2023-01-11T09:30:45.315Z,0.70
2023-01-11T09:33:13.125Z,0.90
2023-01-11T09:35:42.701Z,1.10
2023-01-11T09:38:10.193Z,0.75
2023-01-11T09:40:57.256Z,0.82
2023-01-11T09:43:28.694Z,0.60
2023-01-11T09:46:00.915Z,0.70
2023-01-11T09:48:43.480Z,0.90
2023-01-11T09:51:16.684Z,0.88
2023-01-11T09:53:49.595Z,0.80
2023-01-11T09:56:25.614Z,1.08
2023-01-11T09:59:00.221Z,0.80
2023-01-11T10:01:33.831Z,0.85
2023-01-11T10:04:37.480Z,1.20
2023-01-11T10:07:17.262Z,0.70
2023-01-11T10:18:26.164Z,1.10
2023-01-11T10:19:39.489Z,1.30
2023-01-11T10:22:32.510Z,1.25
2023-01-11T10:25:03.501Z,1.30
2023-01-11T10:27:39.205Z,1.10
2023-01-11T10:30:42.673Z,1.58
2023-01-11T10:33:34.429Z,1.58
2023-01-11T10:36:43.285Z,1.48
2023-01-11T10:39:46.906Z,0.75
2023-01-11T10:42:28.750Z,1.20
2023-01-11T10:45:00.232Z,1.45
2023-01-11T10:47:39.232Z,1.58
2023-01-11T10:50:33.688Z,1.50
2023-01-11T10:53:28.260Z,1.37
2023-01-11T10:56:20.279Z,1.83
2023-01-11T10:58:57.943Z,1.08
2023-01-11T11:02:08.303Z,1.40
2023-01-11T11:04:35.866Z,1.37
2023-01-11T11:07:13.148Z,1.42
2023-01-11T11:10:01.447Z,1.07
2023-01-11T11:12:33.421Z,1.25
2023-01-11T11:15:43.552Z,1.75
2023-01-11T11:18:11.496Z,1.33
2023-01-11T11:20:39.335Z,1.20
2023-01-11T11:23:06.855Z,1.20
2023-01-11T11:25:42.031Z,1.48
2023-01-11T11:28:22.703Z,1.40
2023-01-11T11:30:55.709Z,1.48
2023-01-11T11:33:28.388Z,1.30
2023-01-11T11:36:04.794Z,1.20
2023-01-11T11:38:40.938Z,1.40
2023-01-11T11:41:13.287Z,1.40
2023-01-11T11:43:47.009Z,1.17
2023-01-11T11:46:18.945Z,1.58
2023-01-11T11:49:18.085Z,1.30
2023-01-11T11:51:48.263Z,1.65
2023-01-11T11:54:19.092Z,1.60
2023-01-11T11:56:47.655Z,1.58
2023-01-11T11:59:20.790Z,1.20
2023-01-11T12:01:56.453Z,1.43
2023-01-11T12:04:37.588Z,1.55
2023-01-11T12:07:07.073Z,1.80
2023-01-11T12:09:36.571Z,1.50
2023-01-11T12:12:04.608Z,1.42
2023-01-11T12:14:35.254Z,1.37
2023-01-11T12:17:24.113Z,1.33
2023-01-11T12:19:51.836Z,1.52
2023-01-11T12:22:23.057Z,1.40
2023-01-11T12:25:25.235Z,1.30
2023-01-11T12:28:13.525Z,1.20
2023-01-11T12:31:21.408Z,1.08
2023-01-11T12:34:04.153Z,1.00
2023-01-11T12:37:16.773Z,1.12
2023-01-11T12:39:53.586Z,1.15
2023-01-11T12:43:09.112Z,1.17
2023-01-11T12:46:00.159Z,1.48
2023-01-11T12:48:27.761Z,1.67
2023-01-11T12:51:17.145Z,1.02
2023-01-11T12:53:50.623Z,1.50
2023-01-11T12:56:55.732Z,1.10
2023-01-11T12:59:35.468Z,1.10
2023-01-11T13:02:42.733Z,1.50
2023-01-11T13:05:52.448Z,1.02
2023-01-11T13:08:58.587Z,1.35
2023-01-11T13:11:52.431Z,1.23
2023-01-11T13:14:54.851Z,1.00
2023-01-11T13:17:28.007Z,1.20
2023-01-11T13:20:18.841Z,1.10
2023-01-11T13:22:50.773Z,1.20
2023-01-11T13:25:30.289Z,1.03
2023-01-11T13:28:02.874Z,0.90
2023-01-11T13:30:31.919Z,1.10
2023-01-11T13:33:12.764Z,1.40
2023-01-11T13:35:49.939Z,1.37
2023-01-11T13:38:40.907Z,1.23
2023-01-11T13:41:14.406Z,1.12
2023-01-11T13:43:56.399Z,1.55
2023-01-11T13:46:30.170Z,1.27
2023-01-11T13:49:05.093Z,1.35
2023-01-11T13:52:00.464Z,1.13
2023-01-11T13:55:00.993Z,1.20
2023-01-11T13:57:47.010Z,1.58
2023-01-11T14:00:24.099Z,1.40
2023-01-11T14:03:00.420Z,0.98
2023-01-11T14:05:39.745Z,1.50
2023-01-11T14:08:16.880Z,1.37
2023-01-11T14:11:37.825Z,1.60
2023-01-11T14:14:14.520Z,1.30
2023-01-11T14:17:00.473Z,1.73
2023-01-11T14:19:38.244Z,1.37
2023-01-11T14:22:14.572Z,0.90
2023-01-11T14:24:54.285Z,1.20
2023-01-11T14:27:36.922Z,1.27
2023-01-11T14:30:16.840Z,1.12
2023-01-11T14:33:07.140Z,1.37
2023-01-11T14:35:56.269Z,1.35
2023-01-11T14:38:45.359Z,1.23
2023-01-11T14:41:28.451Z,1.30
2023-01-11T14:44:17.713Z,1.27
2023-01-11T14:47:01.476Z,0.83
2023-01-11T14:49:50.268Z,1.42
2023-01-11T14:52:38.499Z,1.17
2023-01-11T14:55:25.825Z,1.25
2023-01-11T14:57:56.332Z,1.23
2023-01-11T15:00:23.815Z,1.00
2023-01-11T15:03:00.516Z,1.15
2023-01-11T15:05:31.556Z,1.50
2023-01-11T15:08:14.376Z,1.17
2023-01-11T15:11:00.949Z,1.60
2023-01-11T15:13:43.303Z,1.40
2023-01-11T15:16:40.849Z,1.40
2023-01-11T15:19:13.007Z,1.30
2023-01-11T15:21:49.966Z,1.10
2023-01-11T15:24:24.836Z,1.60
2023-01-11T15:26:53.861Z,1.20
2023-01-11T15:29:30.272Z,1.42
2023-01-11T15:32:01.118Z,1.08
2023-01-11T15:34:31.455Z,1.15
2023-01-11T15:37:03.430Z,1.33
2023-01-11T15:39:37.584Z,1.20
2023-01-11T15:42:17.529Z,1.50
2023-01-11T15:45:04.718Z,1.30
2023-01-11T15:48:00.221Z,1.40
2023-01-11T15:50:46.518Z,1.40
2023-01-11T15:53:17.155Z,1.10
2023-01-11T15:56:02.641Z,1.67
2023-01-11T15:58:48.931Z,2.40
2023-01-11T16:01:28.571Z,2.30
2023-01-11T16:04:18.127Z,2.30
2023-01-11T16:06:59.199Z,2.00
2023-01-11T16:10:09.952Z,2.28
2023-01-11T16:12:53.221Z,2.25
2023-01-11T16:15:55.468Z,1.90
2023-01-11T16:18:28.049Z,2.40
2023-01-11T16:21:04.862Z,2.33
2023-01-11T16:23:34.264Z,2.55
2023-01-11T16:26:03.208Z,2.80
2023-01-11T16:28:30.804Z,2.50
2023-01-11T16:31:05.175Z,2.45
2023-01-11T16:33:34.832Z,1.80
2023-01-11T16:36:21.102Z,2.47
2023-01-11T16:39:09.862Z,2.47
2023-01-11T16:41:51.149Z,2.30
2023-01-11T16:44:33.361Z,1.80
2023-01-11T16:47:03.856Z,1.80
2023-01-11T16:49:32.185Z,2.30
2023-01-11T16:52:00.659Z,2.10
2023-01-11T16:54:31.935Z,7.87
2023-01-11T16:57:01.699Z,8.45
2023-01-11T16:59:30.924Z,7.47
2023-01-11T17:02:00.997Z,7.07
2023-01-11T17:04:34.400Z,5.72
2023-01-11T17:07:15.117Z,5.55
2023-01-11T17:09:43.969Z,4.68
2023-01-11T17:12:26.260Z,5.30
2023-01-11T17:15:11.407Z,5.75
2023-01-11T17:17:39.310Z,6.35
2023-01-11T17:20:20.513Z,6.20
2023-01-11T17:22:53.632Z,6.00
2023-01-11T17:25:44.064Z,5.60
2023-01-11T17:28:18.405Z,5.70
2023-01-11T17:30:50.575Z,6.87
2023-01-11T17:33:32.720Z,8.20
2023-01-11T17:36:02.297Z,7.20
2023-01-11T17:38:30.431Z,6.90
2023-01-11T17:40:58.844Z,7.37
2023-01-11T17:43:47.277Z,7.78
2023-01-11T17:46:27.556Z,6.97
2023-01-11T17:48:59.681Z,6.85
2023-01-11T17:51:33.701Z,6.33
2023-01-11T17:54:01.594Z,6.57
2023-01-11T17:56:39.286Z,6.87
2023-01-11T17:59:24.877Z,7.35
2023-01-11T18:01:59.567Z,8.25
2023-01-11T18:04:28.467Z,7.40
2023-01-11T18:07:06.844Z,8.70
2023-01-11T18:09:40.359Z,9.57
2023-01-11T18:12:19.489Z,10.02
2023-01-11T18:14:47.226Z,11.95
2023-01-11T18:17:33.154Z,13.00
2023-01-11T18:20:22.602Z,12.30
2023-01-11T18:23:08.112Z,12.55
2023-01-11T18:25:36.111Z,11.80
2023-01-11T18:28:19.191Z,13.13
2023-01-11T18:30:56.666Z,11.50
2023-01-11T18:33:27.591Z,11.85
2023-01-11T18:35:58.202Z,12.48
2023-01-11T18:38:30.867Z,12.25
2023-01-11T18:41:25.504Z,12.75
2023-01-11T18:43:54.836Z,13.57
2023-01-11T18:46:22.940Z,14.60
2023-01-11T18:48:51.962Z,16.17
2023-01-11T18:51:28.217Z,17.35
2023-01-11T18:53:56.199Z,14.95
2023-01-11T18:56:23.750Z,13.57
2023-01-11T18:58:51.287Z,13.48
2023-01-11T19:01:19.337Z,12.82
2023-01-11T19:03:46.913Z,13.30
2023-01-11T19:06:15.188Z,13.32
2023-01-11T19:08:42.956Z,12.93
2023-01-11T19:11:10.511Z,12.85
2023-01-11T19:13:38.051Z,10.65
2023-01-11T19:16:06.449Z,12.35
2023-01-11T19:18:35.385Z,12.35
2023-01-11T19:21:06.553Z,11.77
2023-01-11T19:23:34.389Z,11.32
2023-01-11T19:26:02.278Z,14.05
2023-01-11T19:28:30.428Z,14.52
2023-01-11T19:30:58.354Z,12.90
2023-01-11T19:33:25.955Z,12.13
2023-01-11T19:35:53.440Z,14.73
2023-01-11T19:38:21.341Z,16.55
2023-01-11T19:40:50.432Z,14.23
2023-01-11T19:43:18.265Z,19.05
2023-01-11T19:45:55.240Z,21.93
2023-01-11T19:48:23.057Z,23.62
2023-01-11T19:50:51.033Z,24.30
2023-01-11T19:53:18.606Z,24.48
2023-01-11T19:55:46.071Z,20.92
2023-01-11T19:58:13.889Z,14.20
2023-01-11T20:00:41.500Z,13.23
2023-01-11T20:03:09.545Z,14.48
2023-01-11T20:05:37.178Z,12.98
2023-01-11T20:08:05.608Z,14.15
2023-01-11T20:10:34.227Z,14.50
2023-01-11T20:13:01.721Z,13.80
2023-01-11T20:15:29.268Z,14.43
2023-01-11T20:17:57.092Z,20.67
2023-01-11T20:20:25.120Z,22.15
2023-01-11T20:22:52.713Z,19.07
2023-01-11T20:25:20.551Z,18.73
2023-01-11T20:27:48.092Z,18.92
2023-01-11T20:30:15.924Z,15.75
2023-01-11T20:32:43.732Z,15.05
2023-01-11T20:35:11.250Z,16.90
2023-01-11T20:37:38.827Z,19.95
2023-01-11T20:40:07.171Z,22.05
2023-01-11T20:42:34.701Z,21.17
2023-01-11T20:45:02.252Z,19.92
2023-01-11T20:47:30.120Z,19.87
2023-01-11T20:49:57.563Z,18.75
2023-01-11T20:52:25.122Z,18.05
2023-01-11T20:54:52.945Z,16.85
2023-01-11T20:57:20.465Z,15.57
2023-01-11T20:59:47.937Z,13.60
2023-01-11T21:02:15.775Z,13.80
2023-01-11T21:04:43.505Z,13.15
2023-01-11T21:07:11.043Z,14.48
2023-01-11T21:09:38.858Z,19.15
2023-01-11T21:12:08.211Z,18.90
2023-01-11T21:14:36.953Z,18.42
2023-01-11T21:17:04.842Z,18.58
2023-01-11T21:19:32.484Z,17.05
2023-01-11T21:21:59.999Z,16.70
2023-01-11T21:24:27.880Z,16.10
2023-01-11T21:26:55.477Z,16.58
2023-01-11T21:29:23.364Z,16.23
2023-01-11T21:31:51.152Z,14.82
2023-01-11T21:34:18.631Z,14.75
2023-01-11T21:36:46.254Z,14.23
2023-01-11T21:39:16.495Z,14.93
2023-01-11T21:41:58.028Z,14.18
2023-01-11T21:44:34.599Z,13.50
2023-01-11T21:47:04.594Z,12.77
2023-01-11T21:49:32.674Z,13.27
2023-01-11T21:52:00.358Z,13.38
2023-01-11T21:54:27.972Z,12.60
2023-01-11T21:56:55.882Z,11.75
2023-01-11T21:59:24.540Z,12.57
2023-01-11T22:01:52.071Z,11.87
2023-01-11T22:04:20.785Z,12.55
2023-01-11T22:06:55.196Z,13.05
2023-01-11T22:09:26.849Z,13.60
2023-01-11T22:11:55.477Z,13.48
2023-01-11T22:14:23.040Z,12.50
2023-01-11T22:16:50.947Z,11.63
2023-01-11T22:19:18.608Z,10.38
2023-01-11T22:21:46.214Z,10.48
2023-01-11T22:24:14.096Z,11.30
2023-01-11T22:26:41.884Z,10.87
2023-01-11T22:29:12.691Z,10.85
2023-01-11T22:31:46.945Z,11.20
2023-01-11T22:34:15.249Z,12.65
2023-01-11T22:36:43.822Z,11.48
2023-01-11T22:39:13.225Z,13.73
2023-01-11T22:41:40.858Z,14.27
2023-01-11T22:44:09.838Z,14.20
2023-01-11T22:46:37.832Z,17.15
2023-01-11T22:49:08.743Z,15.55
2023-01-11T22:51:36.775Z,14.33
2023-01-11T22:54:04.798Z,14.02
2023-01-11T22:56:33.138Z,13.70
2023-01-11T22:59:01.389Z,11.50
2023-01-11T23:01:38.762Z,12.32
2023-01-11T23:04:10.912Z,9.90
2023-01-11T23:06:40.704Z,9.32
2023-01-11T23:09:15.522Z,9.38
2023-01-11T23:12:02.230Z,7.90
2023-01-11T23:14:33.090Z,9.27
2023-01-11T23:17:05.672Z,7.73
2023-01-11T23:19:35.501Z,7.80
2023-01-11T23:22:03.329Z,6.47
2023-01-11T23:24:31.087Z,6.32
2023-01-11T23:26:59.347Z,6.87
2023-01-11T23:29:27.033Z,4.40
2023-01-11T23:31:54.627Z,4.85
2023-01-11T23:34:22.481Z,3.83
2023-01-11T23:36:49.997Z,3.47
2023-01-11T23:39:20.845Z,4.30
2023-01-11T23:42:07.511Z,6.57
2023-01-11T23:44:35.240Z,9.57
2023-01-11T23:47:21.577Z,9.27
2023-01-11T23:49:50.913Z,5.25
2023-01-11T23:52:20.223Z,3.90
2023-01-11T23:54:48.023Z,3.23
2023-01-11T23:57:16.853Z,3.35
2023-01-11T23:59:45.156Z,4.22
